createdAt,value
2023-04-03T00:00:25.088Z,7.5
2023-04-03T00:05:25.086Z,7.6
2023-04-03T00:10:25.103Z,7.7
2023-04-03T00:15:25.096Z,7.2
2023-04-03T00:20:25.100Z,7.3
2023-04-03T00:25:25.272Z,9.9
2023-04-03T00:30:25.113Z,9
2023-04-03T00:35:25.099Z,6.6
2023-04-03T00:40:25.097Z,8.8
2023-04-03T00:45:25.083Z,9.5
2023-04-03T00:50:25.119Z,9.5
2023-04-03T00:55:25.171Z,9.5
2023-04-03T01:00:25.121Z,8.5
2023-04-03T01:05:25.172Z,10.4
2023-04-03T01:10:25.088Z,10
2023-04-03T01:15:25.106Z,12.2
2023-04-03T01:20:25.101Z,10.7
2023-04-03T01:25:25.165Z,9.4
2023-04-03T01:30:25.226Z,10.5
2023-04-03T01:35:25.228Z,9.9
2023-04-03T01:40:25.127Z,9.9
2023-04-03T01:45:25.161Z,9.7
2023-04-03T01:50:25.245Z,10.6
2023-04-03T01:55:25.094Z,12.3
2023-04-03T02:00:25.104Z,12.2
2023-04-03T02:05:25.178Z,11.3
2023-04-03T02:10:25.365Z,12.4
2023-04-03T02:15:25.092Z,16.2
2023-04-03T02:20:25.102Z,14.2
2023-04-03T02:25:25.111Z,13.2
2023-04-03T02:30:25.100Z,14
2023-04-03T02:35:25.132Z,12.7
2023-04-03T02:40:25.100Z,12.3
2023-04-03T02:45:25.104Z,11.9
2023-04-03T02:50:25.097Z,14
2023-04-03T02:55:25.093Z,13.1
2023-04-03T03:00:25.099Z,14.3
2023-04-03T03:05:25.108Z,17.1
2023-04-03T03:10:25.104Z,14.8
2023-04-03T03:15:25.105Z,17.1
2023-04-03T03:20:25.096Z,20.5
2023-04-03T03:25:25.107Z,17.4
2023-04-03T03:30:25.113Z,17.9
2023-04-03T03:35:25.103Z,19.8
2023-04-03T03:40:25.108Z,22
2023-04-03T03:45:25.096Z,22.6
2023-04-03T03:50:25.103Z,18.5
2023-04-03T03:55:25.102Z,20.4
2023-04-03T04:00:25.117Z,21.1
2023-04-03T04:05:25.104Z,18.9
2023-04-03T04:10:25.094Z,16.2
2023-04-03T04:15:25.106Z,16.9
2023-04-03T04:20:25.121Z,21.7
2023-04-03T04:25:25.124Z,21.2
2023-04-03T04:30:25.101Z,21.8
2023-04-03T04:35:25.094Z,20.9
2023-04-03T04:40:25.103Z,22.8
2023-04-03T04:45:25.096Z,22
2023-04-03T04:50:25.100Z,18.3
2023-04-03T04:55:25.096Z,23.4
2023-04-03T05:00:25.095Z,19.4
2023-04-03T05:05:25.094Z,23.2
2023-04-03T05:10:25.105Z,19.2
2023-04-03T05:15:25.104Z,20.7
2023-04-03T05:20:25.108Z,17.4
2023-04-03T05:25:26.553Z,20
2023-04-03T05:30:25.096Z,17.8
2023-04-03T05:35:25.094Z,17.3
2023-04-03T05:40:25.114Z,17.9
2023-04-03T05:45:25.103Z,20
2023-04-03T05:50:25.105Z,17.1
2023-04-03T05:55:25.083Z,17.8
2023-04-03T06:00:25.110Z,21.5
2023-04-03T06:05:25.100Z,21.5
2023-04-03T06:10:25.089Z,21.3
2023-04-03T06:15:25.094Z,18.7
2023-04-03T06:20:25.103Z,21.8
2023-04-03T06:25:25.093Z,20.6
2023-04-03T06:30:25.104Z,20.5
2023-04-03T06:35:25.089Z,27
2023-04-03T06:40:25.089Z,25.7
2023-04-03T06:45:25.276Z,20.5
2023-04-03T06:50:25.089Z,26.5
2023-04-03T06:55:25.100Z,26
2023-04-03T07:00:25.105Z,22.2
2023-04-03T07:05:25.091Z,25.7
2023-04-03T07:10:25.126Z,28.5
2023-04-03T07:15:25.084Z,24
2023-04-03T07:20:25.126Z,28.8
2023-04-03T07:25:25.093Z,25
2023-04-03T07:30:25.104Z,28
2023-04-03T07:35:25.085Z,24.6
2023-04-03T07:40:25.106Z,24.8
2023-04-03T07:45:25.202Z,24.4
2023-04-03T07:50:25.097Z,21.8
2023-04-03T07:55:25.148Z,26.3
2023-04-03T08:00:25.098Z,27
2023-04-03T08:05:25.109Z,35.9
2023-04-03T08:10:25.097Z,27
2023-04-03T08:15:25.091Z,26.1
2023-04-03T08:20:25.100Z,23.7
2023-04-03T08:25:25.102Z,33.2
2023-04-03T08:30:25.094Z,31.5
2023-04-03T08:35:25.093Z,31.7
2023-04-03T08:40:25.105Z,27.9
2023-04-03T08:45:25.093Z,33.2
2023-04-03T08:50:25.229Z,36.4
2023-04-03T08:55:25.090Z,26.3
2023-04-03T09:00:25.098Z,30.6
2023-04-03T09:05:25.106Z,27.9
2023-04-03T09:10:25.099Z,33.4
2023-04-03T09:15:35.916Z,36.1
2023-04-03T09:20:25.105Z,33.9
2023-04-03T09:25:25.097Z,27
2023-04-03T09:30:25.098Z,31.5
2023-04-03T09:35:32.648Z,36.6
2023-04-03T09:40:25.088Z,38.2
2023-04-03T09:45:25.104Z,33.4
2023-04-03T09:50:25.086Z,35.9
2023-04-03T09:55:25.087Z,34.7
2023-04-03T10:00:25.108Z,32.1
2023-04-03T10:05:25.102Z,32.3
2023-04-03T10:10:25.103Z,32.1
2023-04-03T10:15:25.099Z,34.3
2023-04-03T10:20:25.106Z,32.3
2023-04-03T10:25:25.100Z,33.4
2023-04-03T10:30:25.097Z,38.2
2023-04-03T10:35:25.100Z,26.5
2023-04-03T10:40:25.096Z,31.3
2023-04-03T10:45:25.100Z,31
2023-04-03T10:50:25.092Z,39.1
2023-04-03T10:55:25.098Z,34.3
2023-04-03T11:00:25.104Z,27.8
2023-04-03T11:05:25.096Z,26.6
2023-04-03T11:10:25.104Z,30.8
2023-04-03T11:15:25.103Z,27.9
2023-04-03T11:20:25.107Z,29.2
2023-04-03T11:25:25.098Z,25.3
2023-04-03T11:30:25.100Z,27
2023-04-03T11:35:25.095Z,31.2
2023-04-03T11:40:25.096Z,33
2023-04-03T11:45:25.090Z,33
2023-04-03T11:50:25.090Z,31.5
2023-04-03T11:55:25.107Z,28
2023-04-03T12:00:25.091Z,28
2023-04-03T12:05:25.097Z,25.7
2023-04-03T12:10:31.989Z,29.8
2023-04-03T12:15:25.092Z,32.6
2023-04-03T12:20:25.100Z,31.3
2023-04-03T12:25:25.094Z,28.2
2023-04-03T12:30:25.095Z,33.7
2023-04-03T12:35:25.089Z,27
2023-04-03T12:40:25.091Z,26.6
2023-04-03T12:45:25.133Z,33.4
2023-04-03T12:50:25.099Z,25.3
2023-04-03T12:55:25.111Z,31.9
2023-04-03T13:00:25.105Z,33.9
2023-04-03T13:05:25.102Z,31.7
2023-04-03T13:10:25.104Z,30.6
2023-04-03T13:15:25.098Z,28
2023-04-03T13:20:25.100Z,28.8
2023-04-03T13:25:25.118Z,24.1
2023-04-03T13:30:25.096Z,26.7
2023-04-03T13:35:25.095Z,28.6
2023-04-03T13:40:26.571Z,24.8
2023-04-03T13:45:25.180Z,19.1
2023-04-03T13:50:25.101Z,24.8
2023-04-03T13:55:48.426Z,27.2
2023-04-03T14:00:25.098Z,20.2
2023-04-03T14:05:25.085Z,27.8
2023-04-03T14:10:25.091Z,27.2
2023-04-03T14:15:25.092Z,23
2023-04-03T14:20:25.088Z,19.2
2023-04-03T14:25:25.149Z,31.2
2023-04-03T14:30:25.102Z,21.5
2023-04-03T14:35:25.105Z,32.5
2023-04-03T14:40:25.097Z,26.9
2023-04-03T14:45:25.090Z,17.6
2023-04-03T14:50:25.096Z,27.9
2023-04-03T14:55:25.111Z,28
2023-04-03T15:00:25.096Z,19.5
2023-04-03T15:05:25.085Z,25.9
2023-04-03T15:10:25.096Z,31.3
2023-04-03T15:15:50.097Z,27.5
2023-04-03T15:20:50.113Z,19
2023-04-03T15:25:50.102Z,24.1
2023-04-03T15:30:50.115Z,31.7
2023-04-03T15:35:50.157Z,30
2023-04-03T15:40:50.089Z,28.3
2023-04-03T15:45:50.114Z,27.9
2023-04-03T15:50:50.096Z,29.7
2023-04-03T15:55:50.087Z,24.4
2023-04-03T16:00:50.110Z,32.6
2023-04-03T16:05:50.086Z,33.9
2023-04-03T16:10:50.092Z,24.5
2023-04-03T16:15:50.122Z,32.6
2023-04-03T16:20:50.104Z,27.8
2023-04-03T16:25:50.142Z,22.2
2023-04-03T16:30:50.107Z,17.1
2023-04-03T16:35:50.105Z,25.7
2023-04-03T16:40:50.132Z,26
2023-04-03T16:45:50.090Z,28.5
2023-04-03T16:50:50.106Z,33.7
2023-04-03T16:56:15.165Z,26.1
2023-04-03T17:01:15.105Z,21.1
2023-04-03T17:06:15.098Z,21.5
2023-04-03T17:11:15.107Z,20.6
2023-04-03T17:16:15.102Z,25.6
2023-04-03T17:21:15.102Z,23.8
2023-04-03T17:26:15.089Z,19.6
2023-04-03T17:31:15.098Z,26.5
2023-04-03T17:36:15.109Z,22.4
2023-04-03T17:41:15.116Z,23
2023-04-03T17:46:15.155Z,28
2023-04-03T17:51:15.099Z,27.1
2023-04-03T17:56:15.101Z,24
2023-04-03T18:01:15.131Z,26.3
2023-04-03T18:06:15.092Z,20.2
2023-04-03T18:11:15.096Z,22.9
2023-04-03T18:16:15.145Z,20.6
2023-04-03T18:21:15.108Z,23.7
2023-04-03T18:26:16.489Z,23.6
2023-04-03T18:31:15.110Z,24.5
2023-04-03T18:41:15.099Z,17.7
2023-04-03T18:46:15.143Z,22.7
2023-04-03T18:51:15.100Z,13.2
2023-04-03T18:56:15.097Z,14.4
2023-04-03T19:01:15.109Z,18.6
2023-04-03T19:06:15.099Z,10.6
2023-04-03T19:11:15.106Z,19.6
2023-04-03T19:16:15.330Z,21.3
2023-04-03T19:21:15.110Z,22.6
2023-04-03T19:26:15.117Z,22
2023-04-03T19:31:15.098Z,23.5
2023-04-03T19:36:15.094Z,21
2023-04-03T19:41:15.092Z,16.6
2023-04-03T19:46:15.113Z,12.3
2023-04-03T19:51:15.127Z,12.8
2023-04-03T19:56:15.095Z,12.8
2023-04-03T20:01:15.086Z,12.9
2023-04-03T20:06:15.088Z,14.7
2023-04-03T20:11:15.092Z,13
2023-04-03T20:16:15.147Z,13.3
2023-04-03T20:21:15.098Z,12.1
2023-04-03T20:26:15.502Z,9.6
2023-04-03T20:31:15.113Z,11.5
2023-04-03T20:36:15.117Z,11
2023-04-03T20:41:15.099Z,11.9
2023-04-03T20:46:15.097Z,11.3
2023-04-03T20:51:15.101Z,11.1
2023-04-03T20:56:15.097Z,13.7
2023-04-03T21:01:15.109Z,11.9
2023-04-03T21:06:15.465Z,11.3
2023-04-03T21:11:15.100Z,11
2023-04-03T21:16:15.106Z,10.7
2023-04-03T21:21:15.101Z,11.7
2023-04-03T21:26:15.091Z,11.9
2023-04-03T21:31:15.207Z,13.8
2023-04-03T21:36:15.101Z,12.8
2023-04-03T21:41:15.106Z,13.2
2023-04-03T21:46:15.131Z,17.2
2023-04-03T21:51:15.102Z,16.7
2023-04-03T21:56:15.105Z,12.6
2023-04-03T22:01:15.118Z,10.2
2023-04-03T22:06:15.106Z,8.9
2023-04-03T22:11:15.111Z,11.8
2023-04-03T22:16:15.129Z,9.5
2023-04-03T22:21:15.097Z,11.1
2023-04-03T22:26:15.085Z,13.6
2023-04-03T22:31:15.131Z,16.8
2023-04-03T22:36:15.142Z,16.7
2023-04-03T22:41:15.117Z,13.1
2023-04-03T22:46:15.114Z,15.8
2023-04-03T22:51:15.096Z,17.3
2023-04-03T22:56:15.101Z,20.5
2023-04-03T23:01:15.158Z,15.3
2023-04-03T23:06:15.087Z,13.5
2023-04-03T23:11:15.112Z,14
2023-04-03T23:16:15.136Z,14
2023-04-03T23:21:15.093Z,15.2
2023-04-03T23:26:15.105Z,16.1
2023-04-03T23:31:15.087Z,8.5
2023-04-03T23:36:15.134Z,10.3
2023-04-03T23:41:15.104Z,10.8
2023-04-03T23:46:15.129Z,8.1
2023-04-03T23:51:15.096Z,7.6
2023-04-03T23:56:15.291Z,9.8
